createdAt,value
2022-12-12T00:00:43.422Z,19.67
2022-12-12T00:03:10.625Z,24.83
2022-12-12T00:05:37.849Z,20.23
2022-12-12T00:08:04.906Z,20.90
2022-12-12T00:10:32.149Z,19.83
2022-12-12T00:12:59.109Z,25.88
2022-12-12T00:15:25.821Z,22.65
2022-12-12T00:17:52.491Z,27.52
2022-12-12T00:20:19.297Z,20.67
2022-12-12T00:22:46.394Z,23.00
2022-12-12T00:25:13.670Z,22.05
2022-12-12T00:27:40.564Z,20.92
2022-12-12T00:30:07.769Z,25.38
2022-12-12T00:32:34.860Z,21.98
2022-12-12T00:35:01.613Z,22.13
2022-12-12T00:37:28.280Z,24.63
2022-12-12T00:39:54.957Z,23.17
2022-12-12T00:42:21.620Z,22.40
2022-12-12T00:44:48.261Z,23.65
2022-12-12T00:47:14.895Z,22.60
2022-12-12T00:49:41.535Z,24.98
2022-12-12T00:52:08.154Z,28.55
2022-12-12T00:54:34.800Z,21.05
2022-12-12T00:57:01.500Z,26.17
2022-12-12T00:59:28.157Z,25.23
2022-12-12T01:01:54.855Z,24.67
2022-12-12T01:04:21.534Z,23.13
2022-12-12T01:06:48.180Z,26.13
2022-12-12T01:09:14.868Z,20.90
2022-12-12T01:11:41.528Z,23.95
2022-12-12T01:14:08.270Z,20.60
2022-12-12T01:16:34.987Z,24.73
2022-12-12T01:19:01.769Z,27.20
2022-12-12T01:21:28.443Z,26.33
2022-12-12T01:23:55.286Z,29.92
2022-12-12T01:26:24.850Z,26.27
2022-12-12T01:28:52.417Z,28.67
2022-12-12T01:31:19.269Z,25.63
2022-12-12T01:33:46.528Z,25.85
2022-12-12T01:36:16.701Z,31.95
2022-12-12T01:38:48.196Z,32.30
2022-12-12T01:41:16.246Z,26.75
2022-12-12T01:43:43.075Z,30.58
2022-12-12T01:46:33.421Z,33.92
2022-12-12T01:49:17.799Z,25.55
2022-12-12T01:51:45.309Z,24.25
2022-12-12T01:54:16.777Z,25.80
2022-12-12T01:56:45.125Z,32.28
2022-12-12T01:59:14.031Z,30.25
2022-12-12T02:01:41.561Z,26.92
2022-12-12T02:04:10.462Z,28.38
2022-12-12T02:06:38.325Z,30.70
2022-12-12T02:09:09.707Z,26.60
2022-12-12T02:11:43.300Z,31.02
2022-12-12T02:14:10.303Z,23.90
2022-12-12T02:17:12.076Z,31.77
2022-12-12T02:19:49.415Z,32.67
2022-12-12T02:22:55.928Z,33.97
2022-12-12T02:25:53.230Z,27.92
2022-12-12T02:28:19.898Z,34.78
2022-12-12T02:31:21.673Z,28.58
2022-12-12T02:34:14.482Z,33.10
2022-12-12T02:37:03.215Z,25.55
2022-12-12T02:39:47.836Z,31.35
2022-12-12T02:42:30.881Z,29.90
2022-12-12T02:45:09.889Z,34.85
2022-12-12T02:47:44.146Z,28.92
2022-12-12T02:50:18.550Z,30.00
2022-12-12T02:52:47.818Z,29.63
2022-12-12T02:55:16.860Z,30.92
2022-12-12T02:57:43.684Z,31.05
2022-12-12T03:00:13.795Z,30.65
2022-12-12T03:02:41.422Z,33.08
2022-12-12T03:05:44.914Z,33.03
2022-12-12T03:08:36.566Z,30.50
2022-12-12T03:11:11.492Z,29.42
2022-12-12T03:13:57.777Z,29.25
2022-12-12T03:16:39.768Z,36.03
2022-12-12T03:19:18.656Z,35.08
2022-12-12T03:21:55.457Z,35.42
2022-12-12T03:24:34.716Z,34.97
2022-12-12T03:27:10.563Z,29.92
2022-12-12T03:29:44.658Z,34.40
2022-12-12T03:32:17.268Z,32.63
2022-12-12T03:34:50.150Z,33.47
2022-12-12T03:37:21.369Z,35.83
2022-12-12T03:39:55.068Z,36.35
2022-12-12T03:42:27.931Z,31.02
2022-12-12T03:45:02.183Z,37.40
2022-12-12T03:47:38.983Z,35.13
2022-12-12T03:50:14.098Z,34.28
2022-12-12T03:52:48.007Z,34.97
2022-12-12T03:55:24.628Z,33.13
2022-12-12T03:58:08.649Z,34.58
2022-12-12T04:00:37.537Z,34.83
2022-12-12T04:03:19.177Z,35.30
2022-12-12T04:06:18.060Z,35.03
2022-12-12T04:09:06.141Z,38.33
2022-12-12T04:11:55.719Z,39.90
2022-12-12T04:14:52.976Z,38.97
2022-12-12T04:17:25.685Z,36.47
2022-12-12T04:20:16.231Z,40.95
2022-12-12T04:23:08.154Z,43.20
2022-12-12T04:26:02.330Z,39.05
2022-12-12T04:28:32.174Z,37.20
2022-12-12T04:31:04.992Z,42.17
2022-12-12T04:33:41.983Z,44.88
2022-12-12T04:36:12.154Z,41.42
2022-12-12T04:38:40.236Z,41.13
2022-12-12T04:41:09.186Z,45.80
2022-12-12T04:43:39.206Z,39.75
2022-12-12T04:46:10.872Z,43.65
2022-12-12T04:48:51.823Z,46.83
2022-12-12T04:51:28.600Z,35.75
2022-12-12T04:54:05.905Z,45.67
2022-12-12T04:56:36.893Z,41.10
2022-12-12T04:59:06.635Z,48.75
2022-12-12T05:01:55.155Z,38.45
2022-12-12T05:04:36.306Z,34.55
2022-12-12T05:07:10.541Z,39.65
2022-12-12T05:09:37.744Z,49.05
2022-12-12T05:12:04.978Z,39.60
2022-12-12T05:14:32.063Z,42.00
2022-12-12T05:17:05.427Z,46.58
2022-12-12T05:19:32.213Z,45.10
2022-12-12T05:21:58.952Z,43.08
2022-12-12T05:24:30.782Z,41.05
2022-12-12T05:26:58.642Z,44.17
2022-12-12T05:29:25.408Z,40.90
2022-12-12T05:31:52.166Z,45.33
2022-12-12T05:34:18.873Z,41.33
2022-12-12T05:36:45.821Z,41.95
2022-12-12T05:39:12.469Z,41.25
2022-12-12T05:41:39.149Z,43.83
2022-12-12T05:44:05.978Z,41.97
2022-12-12T05:46:32.837Z,35.47
2022-12-12T05:48:59.598Z,43.83
2022-12-12T05:51:26.238Z,38.42
2022-12-12T05:53:52.955Z,38.17
2022-12-12T05:56:19.728Z,37.75
2022-12-12T05:58:47.134Z,36.10
2022-12-12T06:01:17.693Z,44.22
2022-12-12T06:03:54.608Z,40.83
2022-12-12T06:06:25.240Z,38.30
2022-12-12T06:08:51.926Z,42.92
2022-12-12T06:11:18.753Z,46.00
2022-12-12T06:13:54.225Z,36.05
2022-12-12T06:16:21.600Z,39.92
2022-12-12T06:18:52.846Z,44.08
2022-12-12T06:21:20.684Z,35.30
2022-12-12T06:23:47.862Z,34.88
2022-12-12T06:26:16.761Z,36.85
2022-12-12T06:28:44.204Z,40.88
2022-12-12T06:31:12.542Z,40.53
2022-12-12T06:33:41.061Z,34.10
2022-12-12T06:36:14.097Z,39.70
2022-12-12T06:38:41.466Z,38.03
2022-12-12T06:41:11.073Z,36.70
2022-12-12T06:43:37.999Z,38.90
2022-12-12T06:46:06.797Z,38.88
2022-12-12T06:48:34.913Z,40.08
2022-12-12T06:51:07.143Z,37.67
2022-12-12T06:53:33.855Z,35.78
2022-12-12T06:56:00.496Z,40.63
2022-12-12T06:58:27.130Z,41.28
2022-12-12T07:00:54.693Z,42.13
2022-12-12T07:03:21.363Z,40.35
2022-12-12T07:05:48.517Z,41.08
2022-12-12T07:08:16.460Z,36.85
2022-12-12T07:10:44.217Z,37.97
2022-12-12T07:13:14.440Z,37.25
2022-12-12T07:15:46.464Z,38.45
2022-12-12T07:18:14.222Z,41.78
2022-12-12T07:20:42.443Z,41.17
2022-12-12T07:23:09.942Z,34.05
2022-12-12T07:25:45.458Z,42.03
2022-12-12T07:28:13.823Z,39.55
2022-12-12T07:30:44.493Z,38.70
2022-12-12T07:33:12.348Z,42.45
2022-12-12T07:35:39.028Z,39.03
2022-12-12T07:38:06.194Z,37.72
2022-12-12T07:40:33.720Z,41.22
2022-12-12T07:43:00.827Z,43.25
2022-12-12T07:45:27.718Z,44.55
2022-12-12T07:47:54.817Z,39.53
2022-12-12T07:50:22.749Z,42.50
2022-12-12T07:52:49.463Z,44.38
2022-12-12T07:55:16.321Z,41.67
2022-12-12T07:57:42.981Z,35.65
2022-12-12T08:00:13.270Z,42.72
2022-12-12T08:02:40.479Z,42.03
2022-12-12T08:05:07.777Z,38.97
2022-12-12T08:07:34.444Z,39.75
2022-12-12T08:10:01.127Z,36.60
2022-12-12T08:12:30.028Z,42.80
2022-12-12T08:14:56.817Z,37.85
2022-12-12T08:17:23.609Z,38.65
2022-12-12T08:19:51.259Z,33.25
2022-12-12T08:22:17.962Z,39.53
2022-12-12T08:24:44.678Z,36.10
2022-12-12T08:27:15.490Z,35.63
2022-12-12T08:29:43.209Z,40.25
2022-12-12T08:32:09.890Z,31.45
2022-12-12T08:34:36.562Z,39.22
2022-12-12T08:37:03.498Z,34.38
2022-12-12T08:39:30.201Z,36.53
2022-12-12T08:41:56.810Z,36.50
2022-12-12T08:44:23.466Z,36.63
2022-12-12T08:46:50.774Z,35.63
2022-12-12T08:49:17.713Z,39.88
2022-12-12T08:51:44.427Z,32.20
2022-12-12T08:54:13.048Z,39.50
2022-12-12T08:56:40.550Z,36.08
2022-12-12T08:59:07.237Z,34.17
2022-12-12T09:01:34.003Z,34.25
2022-12-12T09:04:00.808Z,35.75
2022-12-12T09:06:27.787Z,36.63
2022-12-12T09:08:56.268Z,37.45
2022-12-12T09:11:23.570Z,36.22
2022-12-12T09:13:50.389Z,37.85
2022-12-12T09:16:17.253Z,41.92
2022-12-12T09:18:48.672Z,40.22
2022-12-12T09:21:16.935Z,37.80
2022-12-12T09:23:43.664Z,40.45
2022-12-12T09:26:10.609Z,49.08
2022-12-12T09:28:38.335Z,38.67
2022-12-12T09:31:07.484Z,37.35
2022-12-12T09:33:35.322Z,43.10
2022-12-12T09:36:05.058Z,42.30
2022-12-12T09:38:32.414Z,41.42
2022-12-12T09:41:11.747Z,38.30
2022-12-12T09:43:47.950Z,40.67
2022-12-12T09:46:27.724Z,37.20
2022-12-12T09:49:02.611Z,44.90
2022-12-12T09:51:29.303Z,42.38
2022-12-12T09:53:56.280Z,35.40
2022-12-12T09:56:31.957Z,41.92
2022-12-12T09:59:18.010Z,41.80
2022-12-12T10:02:13.031Z,38.88
2022-12-12T10:04:51.991Z,38.60
2022-12-12T10:07:27.134Z,41.05
2022-12-12T10:10:16.039Z,41.38
2022-12-12T10:12:44.271Z,33.72
2022-12-12T10:15:23.365Z,37.42
2022-12-12T10:17:50.456Z,38.22
2022-12-12T10:20:22.591Z,37.53
2022-12-12T10:22:56.412Z,39.88
2022-12-12T10:25:28.803Z,40.65
2022-12-12T10:28:09.184Z,43.35
2022-12-12T10:30:50.846Z,36.40
2022-12-12T10:33:41.160Z,36.17
2022-12-12T10:36:36.582Z,38.15
2022-12-12T10:39:10.074Z,34.28
2022-12-12T10:41:47.288Z,38.30
2022-12-12T10:44:22.060Z,35.03
2022-12-12T10:47:10.646Z,41.55
2022-12-12T10:49:37.909Z,38.15
2022-12-12T10:52:11.794Z,42.08
2022-12-12T10:54:46.628Z,44.22
2022-12-12T10:57:21.920Z,42.15
2022-12-12T10:59:51.491Z,42.30
2022-12-12T11:02:35.062Z,44.72
2022-12-12T11:05:17.463Z,39.28
2022-12-12T11:07:48.550Z,40.55
2022-12-12T11:10:35.947Z,39.42
2022-12-12T11:13:20.999Z,35.45
2022-12-12T11:15:56.606Z,31.45
2022-12-12T11:18:24.378Z,35.90
2022-12-12T11:21:12.299Z,38.13
2022-12-12T11:23:44.777Z,41.60
2022-12-12T11:26:20.385Z,37.05
2022-12-12T11:29:01.311Z,37.47
2022-12-12T11:31:32.878Z,39.40
2022-12-12T11:34:04.654Z,42.30
2022-12-12T11:36:35.606Z,40.53
2022-12-12T11:39:14.373Z,40.60
2022-12-12T11:41:57.323Z,38.38
2022-12-12T11:44:27.620Z,37.80
2022-12-12T11:46:54.323Z,35.80
2022-12-12T11:49:21.070Z,31.75
2022-12-12T11:51:48.360Z,35.17
2022-12-12T11:54:23.044Z,30.88
2022-12-12T11:57:03.447Z,43.67
2022-12-12T11:59:46.885Z,30.90
2022-12-12T12:02:31.481Z,38.55
2022-12-12T12:05:17.998Z,45.78
2022-12-12T12:07:55.717Z,35.53
2022-12-12T12:10:46.975Z,35.35
2022-12-12T12:13:37.957Z,30.85
2022-12-12T12:16:19.741Z,37.25
2022-12-12T12:19:13.863Z,31.70
2022-12-12T12:21:41.488Z,34.15
2022-12-12T12:24:29.057Z,37.92
2022-12-12T12:27:30.748Z,37.20
2022-12-12T12:30:21.320Z,37.45
2022-12-12T12:32:55.149Z,41.85
2022-12-12T12:35:31.731Z,37.55
2022-12-12T12:38:13.948Z,38.22
2022-12-12T12:40:55.993Z,32.22
2022-12-12T12:43:23.607Z,40.47
2022-12-12T12:45:57.668Z,41.97
2022-12-12T12:48:28.939Z,37.90
2022-12-12T12:51:18.525Z,39.47
2022-12-12T12:53:51.501Z,41.95
2022-12-12T12:56:38.575Z,36.72
2022-12-12T12:59:14.988Z,42.92
2022-12-12T13:01:45.705Z,37.88
2022-12-12T13:04:16.675Z,40.00
2022-12-12T13:06:52.357Z,40.25
2022-12-12T13:09:27.483Z,38.17
2022-12-12T13:12:01.648Z,34.03
2022-12-12T13:14:38.488Z,34.38
2022-12-12T13:17:07.961Z,33.28
2022-12-12T13:19:39.373Z,30.83
2022-12-12T13:22:07.020Z,30.10
2022-12-12T13:24:59.774Z,35.53
2022-12-12T13:27:29.626Z,31.67
2022-12-12T13:30:04.119Z,32.45
2022-12-12T13:33:06.012Z,31.60
2022-12-12T13:35:42.585Z,27.70
2022-12-12T13:38:20.480Z,32.22
2022-12-12T13:40:56.806Z,29.55
2022-12-12T13:43:30.991Z,27.90
2022-12-12T13:45:57.913Z,29.00
2022-12-12T13:48:45.940Z,24.80
2022-12-12T13:51:28.805Z,20.48
2022-12-12T13:54:13.851Z,22.15
2022-12-12T13:56:42.457Z,24.52
2022-12-12T13:59:25.468Z,24.02
2022-12-12T14:01:55.223Z,22.13
2022-12-12T14:04:27.529Z,21.85
2022-12-12T14:07:17.043Z,24.23
2022-12-12T14:09:49.554Z,21.25
2022-12-12T14:12:29.187Z,21.52
2022-12-12T14:15:06.291Z,20.40
2022-12-12T14:17:42.356Z,21.15
2022-12-12T14:20:25.522Z,19.85
2022-12-12T14:22:52.166Z,18.63
2022-12-12T14:25:29.141Z,21.48
2022-12-12T14:28:14.277Z,26.83
2022-12-12T14:30:50.516Z,24.85
2022-12-12T14:36:04.677Z,27.05
2022-12-12T14:38:42.622Z,21.45
2022-12-12T14:41:16.404Z,24.38
2022-12-12T14:44:36.928Z,22.80
2022-12-12T14:46:42.286Z,27.20
2022-12-12T14:49:16.127Z,23.10
2022-12-12T14:51:45.447Z,26.65
2022-12-12T14:54:17.768Z,26.35
2022-12-12T14:56:53.267Z,27.10
2022-12-12T14:59:28.041Z,33.30
2022-12-12T15:01:58.834Z,25.15
2022-12-12T15:04:31.367Z,25.00
2022-12-12T15:06:59.809Z,31.67
2022-12-12T15:09:29.733Z,30.88
2022-12-12T15:12:11.700Z,31.15
2022-12-12T15:14:55.651Z,35.63
2022-12-12T15:17:44.145Z,29.60
2022-12-12T15:20:21.821Z,55.72
2022-12-12T15:22:53.232Z,38.17
2022-12-12T15:25:23.701Z,43.72
2022-12-12T15:27:56.758Z,37.25
2022-12-12T15:30:39.454Z,38.85
2022-12-12T15:33:14.767Z,32.10
2022-12-12T15:35:49.376Z,33.28
2022-12-12T15:38:16.198Z,37.20
2022-12-12T15:40:49.459Z,44.05
2022-12-12T15:43:23.332Z,39.90
2022-12-12T15:45:55.803Z,42.97
2022-12-12T15:48:23.572Z,37.50
2022-12-12T15:51:06.590Z,40.50
2022-12-12T15:53:37.777Z,47.55
2022-12-12T15:56:24.440Z,38.67
2022-12-12T15:58:53.816Z,44.15
2022-12-12T16:01:28.117Z,47.10
2022-12-12T16:03:59.298Z,33.72
2022-12-12T16:06:28.641Z,35.42
2022-12-12T16:09:10.573Z,41.97
2022-12-12T16:11:58.197Z,46.80
2022-12-12T16:14:24.873Z,59.30
2022-12-12T16:17:04.453Z,54.65
2022-12-12T16:19:52.855Z,47.35
2022-12-12T16:22:40.468Z,50.03
2022-12-12T16:25:27.625Z,37.72
2022-12-12T16:27:55.267Z,40.80
2022-12-12T16:30:22.244Z,58.88
2022-12-12T16:32:48.938Z,54.75
2022-12-12T16:35:18.433Z,34.72
2022-12-12T16:37:45.646Z,28.57
2022-12-12T16:40:15.682Z,35.83
2022-12-12T16:42:48.085Z,37.13
2022-12-12T16:45:14.727Z,38.45
2022-12-12T16:47:41.469Z,32.42
2022-12-12T16:50:08.353Z,41.20
2022-12-12T16:52:35.215Z,36.03
2022-12-12T16:55:02.056Z,39.00
2022-12-12T16:57:28.679Z,36.63
2022-12-12T16:59:55.306Z,37.35
2022-12-12T17:02:23.864Z,39.47
2022-12-12T17:04:51.508Z,34.83
2022-12-12T17:07:18.818Z,38.28
2022-12-12T17:09:45.738Z,46.72
2022-12-12T17:12:13.301Z,39.40
2022-12-12T17:14:40.342Z,42.63
2022-12-12T17:17:07.153Z,36.97
2022-12-12T17:19:34.537Z,40.47
2022-12-12T17:22:01.535Z,42.58
2022-12-12T17:24:28.631Z,40.97
2022-12-12T17:26:55.328Z,38.65
2022-12-12T17:29:22.762Z,41.38
2022-12-12T17:31:49.556Z,46.42
2022-12-12T17:34:16.318Z,46.72
2022-12-12T17:36:43.089Z,48.03
2022-12-12T17:39:11.232Z,37.55
2022-12-12T17:41:38.078Z,45.33
2022-12-12T17:44:05.136Z,45.17
2022-12-12T17:46:31.795Z,38.47
2022-12-12T17:48:59.659Z,40.28
2022-12-12T17:51:26.363Z,43.70
2022-12-12T17:53:53.270Z,43.47
2022-12-12T17:56:24.157Z,41.83
2022-12-12T17:58:50.913Z,36.20
2022-12-12T18:01:20.908Z,36.72
2022-12-12T18:03:48.697Z,49.10
2022-12-12T18:06:17.398Z,41.90
2022-12-12T18:08:44.743Z,42.92
2022-12-12T18:11:14.646Z,52.03
2022-12-12T18:13:42.185Z,49.47
2022-12-12T18:16:12.947Z,44.05
2022-12-12T18:18:40.240Z,44.22
2022-12-12T18:21:12.700Z,59.08
2022-12-12T18:23:41.188Z,41.33
2022-12-12T18:26:11.447Z,48.53
2022-12-12T18:28:38.172Z,48.25
2022-12-12T18:31:05.871Z,49.35
2022-12-12T18:33:32.921Z,46.15
2022-12-12T18:36:03.970Z,47.53
2022-12-12T18:38:31.846Z,36.03
2022-12-12T18:40:58.906Z,44.65
2022-12-12T18:43:27.740Z,42.17
2022-12-12T18:45:55.670Z,40.58
2022-12-12T18:48:22.671Z,37.63
2022-12-12T18:50:49.322Z,40.78
2022-12-12T18:53:16.548Z,40.97
2022-12-12T18:55:44.221Z,45.60
2022-12-12T18:58:12.088Z,38.70
2022-12-12T19:00:40.353Z,42.35
2022-12-12T19:03:08.338Z,46.25
2022-12-12T19:05:40.769Z,48.97
2022-12-12T19:08:08.500Z,46.92
2022-12-12T19:10:36.183Z,39.67
2022-12-12T19:13:03.388Z,43.20
2022-12-12T19:15:34.390Z,72.50
2022-12-12T19:18:01.115Z,72.05
2022-12-12T19:20:27.893Z,64.78
2022-12-12T19:22:54.606Z,59.08
2022-12-12T19:25:21.962Z,60.33
2022-12-12T19:27:48.623Z,53.35
2022-12-12T19:30:18.902Z,50.72
2022-12-12T19:32:48.960Z,55.67
2022-12-12T19:35:16.347Z,62.92
2022-12-12T19:37:43.014Z,50.55
2022-12-12T19:40:10.294Z,53.70
2022-12-12T19:42:37.121Z,51.20
2022-12-12T19:45:04.553Z,49.97
2022-12-12T19:47:33.361Z,39.50
2022-12-12T19:50:00.164Z,44.25
2022-12-12T19:52:27.526Z,46.95
2022-12-12T19:54:54.159Z,48.50
2022-12-12T19:57:25.663Z,41.55
2022-12-12T19:59:53.510Z,42.40
2022-12-12T20:02:20.682Z,43.80
2022-12-12T20:04:47.551Z,43.70
2022-12-12T20:07:14.290Z,45.28
2022-12-12T20:09:41.026Z,55.63
2022-12-12T20:12:07.762Z,51.33
2022-12-12T20:14:36.445Z,49.83
2022-12-12T20:17:03.518Z,60.08
2022-12-12T20:19:30.751Z,54.30
2022-12-12T20:22:00.687Z,55.38
2022-12-12T20:24:28.990Z,58.25
2022-12-12T20:26:56.161Z,38.50
2022-12-12T20:29:23.493Z,40.83
2022-12-12T20:31:50.778Z,43.08
2022-12-12T20:34:21.766Z,52.95
2022-12-12T20:36:48.561Z,49.55
2022-12-12T20:39:17.329Z,46.83
2022-12-12T20:41:45.069Z,46.17
2022-12-12T20:44:13.433Z,43.20
2022-12-12T20:46:44.012Z,44.25
2022-12-12T20:49:15.947Z,46.55
2022-12-12T20:51:59.181Z,45.97
2022-12-12T20:54:28.987Z,44.13
2022-12-12T20:56:57.246Z,48.38
2022-12-12T20:59:25.099Z,52.97
2022-12-12T21:01:52.553Z,54.10
2022-12-12T21:04:19.783Z,49.05
2022-12-12T21:06:48.747Z,53.95
2022-12-12T21:09:23.216Z,49.45
2022-12-12T21:11:53.009Z,44.80
2022-12-12T21:14:19.685Z,51.15
2022-12-12T21:16:46.508Z,48.65
2022-12-12T21:19:14.404Z,49.15
2022-12-12T21:21:43.286Z,56.00
2022-12-12T21:24:12.346Z,51.28
2022-12-12T21:26:39.119Z,55.35
2022-12-12T21:29:06.378Z,61.47
2022-12-12T21:31:36.847Z,50.42
2022-12-12T21:34:05.395Z,40.67
2022-12-12T21:36:33.390Z,63.65
2022-12-12T21:39:01.517Z,58.22
2022-12-12T21:41:28.717Z,63.90
2022-12-12T21:43:56.668Z,61.33
2022-12-12T21:46:25.578Z,67.60
2022-12-12T21:49:08.683Z,66.30
2022-12-12T21:51:35.644Z,54.03
2022-12-12T21:54:04.054Z,66.20
2022-12-12T21:56:31.276Z,71.43
2022-12-12T21:59:00.027Z,52.88
2022-12-12T22:01:27.604Z,52.90
2022-12-12T22:03:55.101Z,56.05
2022-12-12T22:06:24.344Z,43.72
2022-12-12T22:08:51.549Z,38.90
2022-12-12T22:11:40.167Z,37.17
2022-12-12T22:14:07.468Z,41.25
2022-12-12T22:16:34.968Z,40.58
2022-12-12T22:19:05.958Z,54.75
2022-12-12T22:21:34.847Z,53.35
2022-12-12T22:24:01.987Z,43.67
2022-12-12T22:26:30.240Z,36.25
2022-12-12T22:29:00.027Z,31.75
2022-12-12T22:31:29.369Z,41.55
2022-12-12T22:34:00.298Z,34.33
2022-12-12T22:36:29.432Z,37.38
2022-12-12T22:38:58.210Z,35.55
2022-12-12T22:41:25.534Z,35.42
2022-12-12T22:43:55.364Z,38.58
2022-12-12T22:46:22.748Z,36.75
2022-12-12T22:48:49.660Z,33.22
2022-12-12T22:51:19.134Z,26.88
2022-12-12T22:53:46.364Z,30.63
2022-12-12T22:56:14.233Z,35.38
2022-12-12T22:58:41.634Z,49.50
2022-12-12T23:01:10.568Z,43.63
2022-12-12T23:03:38.263Z,41.20
2022-12-12T23:06:09.384Z,40.22
2022-12-12T23:08:36.075Z,40.47
2022-12-12T23:11:07.651Z,36.78
2022-12-12T23:13:34.779Z,43.33
2022-12-12T23:16:08.468Z,41.70
2022-12-12T23:18:37.404Z,43.10
2022-12-12T23:21:06.403Z,40.40
2022-12-12T23:23:34.451Z,42.80
2022-12-12T23:26:06.595Z,41.90
2022-12-12T23:28:34.556Z,42.30
2022-12-12T23:31:04.991Z,43.73
2022-12-12T23:33:31.705Z,42.17
2022-12-12T23:35:58.377Z,35.70
2022-12-12T23:38:25.064Z,36.20
2022-12-12T23:40:51.734Z,42.17
2022-12-12T23:43:18.395Z,48.77
2022-12-12T23:45:45.197Z,45.45
2022-12-12T23:48:11.947Z,42.20
2022-12-12T23:50:38.598Z,40.83
2022-12-12T23:53:10.422Z,42.20
2022-12-12T23:55:37.397Z,37.75
2022-12-12T23:58:04.058Z,46.37
